createdAt,value
2017-03-24T00:00:07.553Z,1021.4
2017-03-24T00:01:17.484Z,1021.36
2017-03-24T00:02:27.720Z,1021.36
2017-03-24T00:03:37.650Z,1021.43
2017-03-24T00:04:47.902Z,1021.42
2017-03-24T00:05:58.138Z,1021.41
2017-03-24T00:07:08.380Z,1021.44
2017-03-24T00:08:18.305Z,1021.41
2017-03-24T00:09:28.235Z,1021.4
2017-03-24T00:10:38.490Z,1021.39
2017-03-24T00:11:48.105Z,1021.4
2017-03-24T00:12:58.039Z,1021.44
2017-03-24T00:14:08.285Z,1021.44
2017-03-24T00:15:18.220Z,1021.44
2017-03-24T00:16:28.455Z,1021.4
2017-03-24T00:17:38.393Z,1021.43
2017-03-24T00:18:48.010Z,1021.39
2017-03-24T00:19:57.945Z,1021.38
2017-03-24T00:21:07.557Z,1021.39
2017-03-24T00:22:17.792Z,1021.37
2017-03-24T00:23:27.716Z,1021.35
2017-03-24T00:24:37.648Z,1021.33
2017-03-24T00:25:47.262Z,1021.32
2017-03-24T00:26:57.184Z,1021.35
2017-03-24T00:28:06.798Z,1021.39
2017-03-24T00:29:17.060Z,1021.39
2017-03-24T00:30:27.306Z,1021.42
2017-03-24T00:31:37.229Z,1021.42
2017-03-24T00:32:47.469Z,1021.47
2017-03-24T00:33:57.727Z,1021.43
2017-03-24T00:35:07.969Z,1021.47
2017-03-24T00:44:16.591Z,1021.57
2017-03-24T00:45:26.826Z,1021.59
2017-03-24T00:46:36.734Z,1021.57
2017-03-24T00:47:46.970Z,1021.56
2017-03-24T00:48:56.893Z,1021.54
2017-03-24T00:50:07.118Z,1021.59
2017-03-24T00:51:17.031Z,1021.59
2017-03-24T00:52:27.253Z,1021.55
2017-03-24T00:53:36.857Z,1021.59
2017-03-24T00:54:47.088Z,1021.59
2017-03-24T00:55:57.322Z,1021.66
2017-03-24T00:57:07.232Z,1021.66
2017-03-24T00:58:17.149Z,1021.66
2017-03-24T00:59:26.758Z,1021.66
2017-03-24T01:00:36.675Z,1021.63
2017-03-24T01:01:46.587Z,1021.64
2017-03-24T01:02:56.814Z,1021.66
2017-03-24T01:04:06.734Z,1021.66
2017-03-24T01:05:16.969Z,1021.66
2017-03-24T01:06:26.894Z,1021.64
2017-03-24T01:07:36.804Z,1021.67
2017-03-24T01:08:46.724Z,1021.69
2017-03-24T01:09:56.954Z,1021.71
2017-03-24T01:11:07.232Z,1021.7
2017-03-24T01:12:17.462Z,1021.75
2017-03-24T01:13:27.694Z,1021.73
2017-03-24T01:14:37.617Z,1021.73
2017-03-24T01:15:47.863Z,1021.74
2017-03-24T01:16:58.091Z,1021.79
2017-03-24T01:18:08.313Z,1021.81
2017-03-24T01:19:18.240Z,1021.76
2017-03-24T01:20:28.471Z,1021.8
2017-03-24T01:21:38.691Z,1021.83
2017-03-24T01:22:48.302Z,1021.86
2017-03-24T01:23:58.541Z,1021.8
2017-03-24T01:25:08.153Z,1021.82
2017-03-24T01:26:18.387Z,1021.83
2017-03-24T01:27:28.623Z,1021.79
2017-03-24T01:28:38.869Z,1021.82
2017-03-24T01:29:48.812Z,1021.84
2017-03-24T01:30:58.753Z,1021.85
2017-03-24T01:32:08.686Z,1021.88
2017-03-24T01:33:18.618Z,1021.87
2017-03-24T01:34:28.563Z,1021.92
2017-03-24T01:35:38.808Z,1021.9
2017-03-24T01:36:49.057Z,1021.96
2017-03-24T01:37:59.304Z,1021.93
2017-03-24T01:39:08.934Z,1021.95
2017-03-24T01:40:18.562Z,1021.94
2017-03-24T01:41:28.188Z,1021.96
2017-03-24T01:42:38.441Z,1021.99
2017-03-24T01:43:48.379Z,1022.04
2017-03-24T01:44:58.625Z,1022.05
2017-03-24T01:46:08.551Z,1022.05
2017-03-24T01:47:18.801Z,1022.12
2017-03-24T01:48:29.051Z,1022.12
2017-03-24T01:49:39.300Z,1022.18
2017-03-24T01:50:49.541Z,1022.16
2017-03-24T01:51:59.473Z,1022.2
2017-03-24T01:53:09.717Z,1022.18
2017-03-24T01:54:19.654Z,1022.2
2017-03-24T01:55:29.591Z,1022.19
2017-03-24T01:56:39.523Z,1022.26
2017-03-24T01:57:49.454Z,1022.25
2017-03-24T01:58:59.699Z,1022.27
2017-03-24T02:00:09.948Z,1022.29
2017-03-24T02:01:20.188Z,1022.34
2017-03-24T02:02:29.803Z,1022.33
2017-03-24T02:03:39.735Z,1022.41
2017-03-24T02:04:49.357Z,1022.43
2017-03-24T02:05:58.997Z,1022.44
2017-03-24T02:07:08.618Z,1022.47
2017-03-24T02:08:18.551Z,1022.45
2017-03-24T02:09:28.494Z,1022.45
2017-03-24T02:10:38.744Z,1022.42
2017-03-24T02:11:48.992Z,1022.46
2017-03-24T02:12:58.960Z,1022.51
2017-03-24T02:14:09.244Z,1022.48
2017-03-24T02:15:19.184Z,1022.49
2017-03-24T02:16:29.429Z,1022.53
2017-03-24T02:17:39.360Z,1022.49
2017-03-24T02:18:48.985Z,1022.53
2017-03-24T02:19:58.931Z,1022.54
2017-03-24T02:21:08.862Z,1022.55
2017-03-24T02:22:18.793Z,1022.61
2017-03-24T02:23:28.728Z,1022.56
2017-03-24T02:24:38.348Z,1022.56
2017-03-24T02:25:47.961Z,1022.56
2017-03-24T02:26:58.203Z,1022.56
2017-03-24T02:28:08.132Z,1022.61
2017-03-24T02:29:17.763Z,1022.63
2017-03-24T02:30:27.696Z,1022.6
2017-03-24T02:31:37.941Z,1022.61
2017-03-24T02:32:48.184Z,1022.61
2017-03-24T02:33:58.433Z,1022.59
2017-03-24T02:35:08.378Z,1022.66
2017-03-24T02:36:18.305Z,1022.63
2017-03-24T02:37:28.233Z,1022.69
2017-03-24T02:38:38.167Z,1022.67
2017-03-24T02:39:48.110Z,1022.74
2017-03-24T02:40:58.362Z,1022.78
2017-03-24T02:42:08.295Z,1022.81
2017-03-24T02:43:18.531Z,1022.8
2017-03-24T02:44:28.789Z,1022.78
2017-03-24T02:45:38.412Z,1022.8
2017-03-24T02:46:48.696Z,1022.81
2017-03-24T02:47:58.942Z,1022.85
2017-03-24T02:49:08.873Z,1022.87
2017-03-24T02:50:19.115Z,1022.89
2017-03-24T02:51:29.355Z,1022.92
2017-03-24T02:52:39.596Z,1022.9
2017-03-24T02:53:49.215Z,1022.91
2017-03-24T02:54:59.148Z,1022.94
2017-03-24T02:56:09.113Z,1022.94
2017-03-24T02:57:19.045Z,1022.99
2017-03-24T02:58:28.975Z,1022.97
2017-03-24T02:59:39.233Z,1022.95
2017-03-24T03:00:49.157Z,1022.96
2017-03-24T03:01:59.094Z,1022.93
2017-03-24T03:03:09.341Z,1022.93
2017-03-24T03:04:19.277Z,1022.95
2017-03-24T03:05:28.891Z,1022.97
2017-03-24T03:06:38.510Z,1022.99
2017-03-24T03:07:48.757Z,1022.98
2017-03-24T03:08:58.700Z,1023.03
2017-03-24T03:10:08.947Z,1023.05
2017-03-24T03:11:18.877Z,1023.11
2017-03-24T03:12:29.138Z,1023.12
2017-03-24T03:13:39.390Z,1023.14
2017-03-24T03:14:49.325Z,1023.11
2017-03-24T03:15:59.265Z,1023.1
2017-03-24T03:17:08.887Z,1023.12
2017-03-24T03:18:19.158Z,1023.11
2017-03-24T03:19:29.137Z,1023.15
2017-03-24T03:20:39.068Z,1023.16
2017-03-24T03:21:48.993Z,1023.17
2017-03-24T03:22:58.985Z,1023.15
2017-03-24T03:24:09.236Z,1023.19
2017-03-24T03:25:19.198Z,1023.2
2017-03-24T03:26:29.127Z,1023.21
2017-03-24T03:27:39.064Z,1023.26
2017-03-24T03:28:49.315Z,1023.25
2017-03-24T03:29:59.260Z,1023.32
2017-03-24T03:31:08.875Z,1023.33
2017-03-24T03:32:19.120Z,1023.36
2017-03-24T03:33:29.358Z,1023.35
2017-03-24T03:34:39.608Z,1023.4
2017-03-24T03:35:49.543Z,1023.39
2017-03-24T03:36:59.168Z,1023.42
2017-03-24T03:38:09.411Z,1023.44
2017-03-24T03:39:19.657Z,1023.45
2017-03-24T03:40:29.912Z,1023.47
2017-03-24T03:41:39.842Z,1023.49
2017-03-24T03:42:50.088Z,1023.56
2017-03-24T03:44:00.334Z,1023.49
2017-03-24T03:45:10.587Z,1023.54
2017-03-24T03:46:20.518Z,1023.58
2017-03-24T03:47:30.763Z,1023.57
2017-03-24T03:48:40.706Z,1023.57
2017-03-24T03:49:50.951Z,1023.6
2017-03-24T03:51:01.196Z,1023.61
2017-03-24T03:52:11.440Z,1023.65
2017-03-24T03:53:21.686Z,1023.73
2017-03-24T03:54:31.615Z,1023.7
2017-03-24T03:55:41.911Z,1023.68
2017-03-24T03:56:52.150Z,1023.74
2017-03-24T03:58:02.391Z,1023.74
2017-03-24T03:59:12.331Z,1023.75
2017-03-24T04:00:22.578Z,1023.76
2017-03-24T04:01:32.832Z,1023.76
2017-03-24T04:02:42.757Z,1023.82
2017-03-24T04:03:52.692Z,1023.85
2017-03-24T04:05:02.942Z,1023.89
2017-03-24T04:06:13.199Z,1023.92
2017-03-24T04:07:23.137Z,1023.92
2017-03-24T04:08:33.382Z,1024
2017-03-24T04:09:43.637Z,1023.97
2017-03-24T04:10:53.880Z,1024.01
2017-03-24T04:12:03.819Z,1024
2017-03-24T04:13:13.445Z,1024.03
2017-03-24T04:14:23.697Z,1024.03
2017-03-24T04:15:33.940Z,1024.04
2017-03-24T04:16:43.873Z,1024.02
2017-03-24T04:17:53.812Z,1024.02
2017-03-24T04:19:04.066Z,1024.02
2017-03-24T04:20:14.006Z,1024.02
2017-03-24T04:21:24.248Z,1024
2017-03-24T04:22:34.495Z,1024.02
2017-03-24T04:23:44.745Z,1024.06
2017-03-24T04:24:54.682Z,1024.03
2017-03-24T04:26:04.616Z,1024.08
2017-03-24T04:27:14.240Z,1024.06
2017-03-24T04:28:24.486Z,1024.06
2017-03-24T04:29:34.424Z,1024.05
2017-03-24T04:30:44.676Z,1024.05
2017-03-24T04:31:54.616Z,1024.06
2017-03-24T04:33:03.981Z,1024.05
2017-03-24T04:34:13.610Z,1024.04
2017-03-24T04:35:23.872Z,1024.08
2017-03-24T04:36:33.801Z,1024.1
2017-03-24T04:37:44.044Z,1024.13
2017-03-24T04:38:53.986Z,1024.14
2017-03-24T04:40:03.924Z,1024.12
2017-03-24T04:41:13.541Z,1024.17
2017-03-24T04:42:23.790Z,1024.27
2017-03-24T04:43:33.740Z,1024.26
2017-03-24T04:44:43.992Z,1024.25
2017-03-24T04:45:54.231Z,1024.24
2017-03-24T04:47:04.483Z,1024.23
2017-03-24T04:48:13.793Z,1024.28
2017-03-24T04:49:23.422Z,1024.31
2017-03-24T04:50:33.350Z,1024.32
2017-03-24T04:51:43.599Z,1024.35
2017-03-24T04:52:53.209Z,1024.37
2017-03-24T04:54:03.466Z,1024.39
2017-03-24T04:55:13.714Z,1024.36
2017-03-24T04:56:23.952Z,1024.43
2017-03-24T04:57:33.877Z,1024.43
2017-03-24T04:58:44.129Z,1024.47
2017-03-24T04:59:54.062Z,1024.5
2017-03-24T05:01:03.689Z,1024.51
2017-03-24T05:02:13.937Z,1024.58
2017-03-24T05:03:23.869Z,1024.6
2017-03-24T05:04:33.496Z,1024.61
2017-03-24T05:05:43.117Z,1024.6
2017-03-24T05:06:53.406Z,1024.64
2017-03-24T05:08:03.349Z,1024.67
2017-03-24T05:09:13.594Z,1024.69
2017-03-24T05:10:23.532Z,1024.72
2017-03-24T05:11:33.464Z,1024.75
2017-03-24T05:12:43.708Z,1024.78
2017-03-24T05:13:53.959Z,1024.81
2017-03-24T05:15:03.582Z,1024.88
2017-03-24T05:16:13.513Z,1024.9
2017-03-24T05:17:23.761Z,1024.96
2017-03-24T05:18:33.390Z,1024.95
2017-03-24T05:19:43.327Z,1024.94
2017-03-24T05:20:53.263Z,1025
2017-03-24T05:22:03.522Z,1025.05
2017-03-24T05:23:13.768Z,1025.08
2017-03-24T05:24:23.707Z,1025.11
2017-03-24T05:25:33.958Z,1025.15
2017-03-24T05:26:43.898Z,1025.17
2017-03-24T05:27:54.145Z,1025.17
2017-03-24T05:29:04.418Z,1025.23
2017-03-24T05:30:14.676Z,1025.19
2017-03-24T05:31:24.920Z,1025.19
2017-03-24T05:32:34.537Z,1025.2
2017-03-24T05:33:44.476Z,1025.19
2017-03-24T05:34:54.421Z,1025.22
2017-03-24T05:36:04.667Z,1025.2
2017-03-24T05:37:14.624Z,1025.27
2017-03-24T05:38:24.558Z,1025.27
2017-03-24T05:39:34.490Z,1025.31
2017-03-24T05:40:44.431Z,1025.29
2017-03-24T05:41:54.365Z,1025.35
2017-03-24T05:43:04.302Z,1025.39
2017-03-24T05:44:13.921Z,1025.4
2017-03-24T05:45:24.167Z,1025.44
2017-03-24T05:46:34.097Z,1025.47
2017-03-24T05:47:44.373Z,1025.5
2017-03-24T05:48:54.627Z,1025.5
2017-03-24T05:50:04.562Z,1025.56
2017-03-24T05:51:14.809Z,1025.55
2017-03-24T05:52:24.745Z,1025.55
2017-03-24T05:53:34.678Z,1025.57
2017-03-24T05:54:44.617Z,1025.58
2017-03-24T05:55:54.863Z,1025.59
2017-03-24T05:57:05.117Z,1025.62
2017-03-24T05:58:14.740Z,1025.63
2017-03-24T05:59:24.671Z,1025.66
2017-03-24T06:00:34.915Z,1025.67
2017-03-24T06:01:44.215Z,1025.75
2017-03-24T06:02:53.832Z,1025.76
2017-03-24T06:04:04.078Z,1025.84
2017-03-24T06:05:14.015Z,1025.83
2017-03-24T06:06:24.287Z,1025.89
2017-03-24T06:07:34.529Z,1025.88
2017-03-24T06:08:44.160Z,1025.9
2017-03-24T06:09:54.406Z,1025.96
2017-03-24T06:11:04.348Z,1025.94
2017-03-24T06:12:14.593Z,1025.96
2017-03-24T06:13:24.906Z,1025.98
2017-03-24T06:14:35.156Z,1025.95
2017-03-24T06:15:44.785Z,1025.95
2017-03-24T06:16:55.022Z,1025.97
2017-03-24T06:18:04.690Z,1025.98
2017-03-24T06:19:14.625Z,1026
2017-03-24T06:20:24.874Z,1026.01
2017-03-24T06:21:35.135Z,1026.05
2017-03-24T06:22:45.382Z,1026.07
2017-03-24T06:23:55.635Z,1026.11
2017-03-24T06:25:05.883Z,1026.16
2017-03-24T06:26:16.129Z,1026.18
2017-03-24T06:27:26.373Z,1026.2
2017-03-24T06:28:36.325Z,1026.24
2017-03-24T06:29:46.262Z,1026.27
2017-03-24T06:30:56.510Z,1026.29
2017-03-24T06:32:05.817Z,1026.32
2017-03-24T06:33:15.745Z,1026.35
2017-03-24T06:34:25.367Z,1026.35
2017-03-24T06:35:35.311Z,1026.4
2017-03-24T06:36:45.247Z,1026.41
2017-03-24T06:37:54.858Z,1026.4
2017-03-24T06:39:04.477Z,1026.42
2017-03-24T06:40:14.728Z,1026.4
2017-03-24T06:41:24.660Z,1026.36
2017-03-24T06:42:34.943Z,1026.4
2017-03-24T06:43:45.204Z,1026.4
2017-03-24T06:44:55.473Z,1026.39
2017-03-24T06:46:05.410Z,1026.44
2017-03-24T06:47:15.649Z,1026.44
2017-03-24T06:48:25.271Z,1026.45
2017-03-24T06:49:35.204Z,1026.52
2017-03-24T06:50:45.143Z,1026.54
2017-03-24T06:51:54.753Z,1026.55
2017-03-24T06:53:04.369Z,1026.53
2017-03-24T06:54:14.612Z,1026.56
2017-03-24T06:55:24.864Z,1026.49
2017-03-24T06:56:34.795Z,1026.5
2017-03-24T06:57:44.720Z,1026.55
2017-03-24T06:58:54.976Z,1026.55
2017-03-24T07:00:04.611Z,1026.6
2017-03-24T07:01:14.565Z,1026.65
2017-03-24T07:02:24.814Z,1026.64
2017-03-24T07:03:34.431Z,1026.63
2017-03-24T07:04:44.373Z,1026.66
2017-03-24T07:05:53.997Z,1026.68
2017-03-24T07:07:03.924Z,1026.68
2017-03-24T07:08:13.546Z,1026.64
2017-03-24T07:09:23.484Z,1026.7
2017-03-24T07:10:33.739Z,1026.74
2017-03-24T07:11:43.351Z,1026.72
2017-03-24T07:12:52.974Z,1026.76
2017-03-24T07:14:03.226Z,1026.78
2017-03-24T07:15:12.544Z,1026.76
2017-03-24T07:16:22.477Z,1026.76
2017-03-24T07:17:32.715Z,1026.73
2017-03-24T07:18:42.961Z,1026.72
2017-03-24T07:19:52.600Z,1026.72
2017-03-24T07:21:02.242Z,1026.73
2017-03-24T07:22:12.171Z,1026.68
2017-03-24T07:23:22.101Z,1026.69
2017-03-24T07:24:31.734Z,1026.71
2017-03-24T07:25:41.671Z,1026.67
2017-03-24T07:26:51.606Z,1026.67
2017-03-24T07:28:01.230Z,1026.68
2017-03-24T07:29:10.863Z,1026.67
2017-03-24T07:30:21.125Z,1026.69
2017-03-24T07:31:31.057Z,1026.72
2017-03-24T07:32:40.675Z,1026.76
2017-03-24T07:33:50.928Z,1026.83
2017-03-24T07:35:00.229Z,1026.83
2017-03-24T07:36:10.159Z,1026.87
2017-03-24T07:37:20.400Z,1026.86
2017-03-24T07:38:30.333Z,1026.84
2017-03-24T07:39:40.268Z,1026.87
2017-03-24T07:40:49.901Z,1026.87
2017-03-24T07:42:00.147Z,1026.87
2017-03-24T07:43:10.395Z,1026.87
2017-03-24T07:44:20.328Z,1026.89
2017-03-24T07:45:30.281Z,1026.92
2017-03-24T07:46:39.585Z,1027
2017-03-24T07:47:49.522Z,1027.01
2017-03-24T07:48:59.774Z,1027.01
2017-03-24T07:50:09.415Z,1027.04
2017-03-24T07:51:19.031Z,1027.06
2017-03-24T07:52:29.342Z,1027.05
2017-03-24T07:53:39.595Z,1027.09
2017-03-24T07:54:48.910Z,1027.08
2017-03-24T07:55:59.164Z,1027.1
2017-03-24T07:57:09.434Z,1027.11
2017-03-24T07:58:19.046Z,1027.09
2017-03-24T07:59:29.286Z,1027.1
2017-03-24T08:00:38.910Z,1027.12
2017-03-24T08:01:49.151Z,1027.16
2017-03-24T08:02:59.392Z,1027.15
2017-03-24T08:04:09.632Z,1027.15
2017-03-24T08:05:19.555Z,1027.15
2017-03-24T08:06:29.803Z,1027.14
2017-03-24T08:07:39.118Z,1027.16
2017-03-24T08:08:49.353Z,1027.15
2017-03-24T08:09:59.590Z,1027.12
2017-03-24T08:11:09.526Z,1027.11
2017-03-24T08:12:19.456Z,1027.11
2017-03-24T08:13:29.072Z,1027.11
2017-03-24T08:14:39.002Z,1027.1
2017-03-24T08:15:48.929Z,1027.13
2017-03-24T08:16:59.166Z,1027.14
2017-03-24T08:18:09.405Z,1027.14
2017-03-24T08:19:19.021Z,1027.18
2017-03-24T08:20:29.271Z,1027.19
2017-03-24T08:21:39.243Z,1027.19
2017-03-24T08:22:49.176Z,1027.13
2017-03-24T08:23:59.416Z,1027.15
2017-03-24T08:25:09.651Z,1027.18
2017-03-24T08:26:19.578Z,1027.17
2017-03-24T08:27:29.505Z,1027.16
2017-03-24T08:28:39.427Z,1027.16
2017-03-24T08:29:49.363Z,1027.14
2017-03-24T08:30:59.287Z,1027.18
2017-03-24T08:32:08.913Z,1027.13
2017-03-24T08:33:18.842Z,1027.12
2017-03-24T08:34:28.803Z,1027.13
2017-03-24T08:35:39.052Z,1027.18
2017-03-24T08:36:49.294Z,1027.17
2017-03-24T08:37:59.223Z,1027.19
2017-03-24T08:39:09.162Z,1027.24
2017-03-24T08:40:19.095Z,1027.25
2017-03-24T08:41:28.708Z,1027.23
2017-03-24T08:42:38.959Z,1027.21
2017-03-24T08:43:48.263Z,1027.21
2017-03-24T08:44:58.515Z,1027.2
2017-03-24T08:46:08.752Z,1027.18
2017-03-24T08:47:18.682Z,1027.17
2017-03-24T08:48:28.611Z,1027.15
2017-03-24T08:49:38.593Z,1027.16
2017-03-24T08:50:48.518Z,1027.14
2017-03-24T08:51:58.441Z,1027.11
2017-03-24T08:53:08.369Z,1027.11
2017-03-24T08:54:18.612Z,1027.13
2017-03-24T08:55:28.538Z,1027.11
2017-03-24T08:56:38.775Z,1027.11
2017-03-24T08:57:49.019Z,1027.11
2017-03-24T08:58:58.949Z,1027.16
2017-03-24T09:00:09.192Z,1027.13
2017-03-24T09:01:18.810Z,1027.17
2017-03-24T09:02:28.426Z,1027.14
2017-03-24T09:03:38.392Z,1027.19
2017-03-24T09:04:48.669Z,1027.18
2017-03-24T09:05:58.913Z,1027.2
2017-03-24T09:07:09.160Z,1027.18
2017-03-24T09:08:19.402Z,1027.19
2017-03-24T09:09:29.014Z,1027.2
2017-03-24T09:10:38.947Z,1027.22
2017-03-24T09:11:49.186Z,1027.22
2017-03-24T09:12:59.118Z,1027.21
2017-03-24T09:14:08.743Z,1027.21
2017-03-24T09:15:18.989Z,1027.18
2017-03-24T09:16:28.611Z,1027.2
2017-03-24T09:17:38.224Z,1027.21
2017-03-24T09:18:48.154Z,1027.2
2017-03-24T09:19:58.077Z,1027.21
2017-03-24T09:21:08.014Z,1027.23
2017-03-24T09:22:17.942Z,1027.23
2017-03-24T09:23:28.181Z,1027.24
2017-03-24T09:24:37.796Z,1027.23
2017-03-24T09:25:48.038Z,1027.25
2017-03-24T09:26:58.279Z,1027.25
2017-03-24T09:28:08.205Z,1027.22
2017-03-24T09:29:18.131Z,1027.19
2017-03-24T09:30:28.053Z,1027.22
2017-03-24T09:31:38.293Z,1027.19
2017-03-24T09:32:48.238Z,1027.22
2017-03-24T09:33:57.228Z,1027.26
2017-03-24T09:35:07.150Z,1027.26
2017-03-24T09:36:17.390Z,1027.29
2017-03-24T09:37:27.315Z,1027.33
2017-03-24T09:38:37.239Z,1027.34
2017-03-24T09:39:47.480Z,1027.34
2017-03-24T09:40:57.720Z,1027.33
2017-03-24T09:42:07.962Z,1027.33
2017-03-24T09:43:18.204Z,1027.31
2017-03-24T09:44:28.131Z,1027.3
2017-03-24T09:45:38.393Z,1027.35
2017-03-24T09:46:48.325Z,1027.32
2017-03-24T09:47:58.254Z,1027.3
2017-03-24T09:49:08.518Z,1027.33
2017-03-24T09:50:18.764Z,1027.31
2017-03-24T09:51:29.009Z,1027.28
2017-03-24T09:52:38.621Z,1027.31
2017-03-24T09:53:48.863Z,1027.28
2017-03-24T09:54:58.807Z,1027.24
2017-03-24T09:56:08.780Z,1027.22
2017-03-24T09:57:18.708Z,1027.28
2017-03-24T09:58:28.632Z,1027.26
2017-03-24T09:59:38.554Z,1027.33
2017-03-24T10:00:48.483Z,1027.31
2017-03-24T10:01:58.421Z,1027.26
2017-03-24T10:03:08.058Z,1027.26
2017-03-24T10:04:18.314Z,1027.23
2017-03-24T10:05:27.921Z,1027.24
2017-03-24T10:06:37.853Z,1027.24
2017-03-24T10:07:48.092Z,1027.23
2017-03-24T10:08:57.706Z,1027.24
2017-03-24T10:10:07.322Z,1027.24
2017-03-24T10:11:17.567Z,1027.28
2017-03-24T10:12:27.499Z,1027.31
2017-03-24T10:13:37.740Z,1027.37
2017-03-24T10:14:47.977Z,1027.38
2017-03-24T10:15:58.219Z,1027.43
2017-03-24T10:17:08.463Z,1027.39
2017-03-24T10:18:18.702Z,1027.39
2017-03-24T10:19:28.632Z,1027.41
2017-03-24T10:20:38.261Z,1027.43
2017-03-24T10:21:48.199Z,1027.4
2017-03-24T10:22:58.143Z,1027.36
2017-03-24T10:24:07.758Z,1027.37
2017-03-24T10:25:17.375Z,1027.41
2017-03-24T10:26:26.994Z,1027.37
2017-03-24T10:27:36.606Z,1027.4
2017-03-24T10:28:46.539Z,1027.44
2017-03-24T10:29:56.155Z,1027.42
2017-03-24T10:31:06.397Z,1027.42
2017-03-24T10:32:16.330Z,1027.45
2017-03-24T10:33:26.255Z,1027.52
2017-03-24T10:34:35.607Z,1027.55
2017-03-24T10:35:45.850Z,1027.59
2017-03-24T10:36:56.100Z,1027.56
2017-03-24T10:38:06.028Z,1027.61
2017-03-24T10:39:15.644Z,1027.62
2017-03-24T10:40:25.262Z,1027.69
2017-03-24T10:41:35.189Z,1027.68
2017-03-24T10:42:45.423Z,1027.64
2017-03-24T10:43:55.036Z,1027.66
2017-03-24T10:45:04.963Z,1027.66
2017-03-24T10:46:14.590Z,1027.62
2017-03-24T10:47:24.205Z,1027.6
2017-03-24T10:48:33.824Z,1027.65
2017-03-24T10:49:43.755Z,1027.64
2017-03-24T10:50:54.000Z,1027.62
2017-03-24T10:52:03.925Z,1027.63
2017-03-24T10:53:13.863Z,1027.63
2017-03-24T10:54:24.103Z,1027.61
2017-03-24T10:55:33.714Z,1027.62
2017-03-24T10:56:43.638Z,1027.62
2017-03-24T10:57:53.882Z,1027.57
2017-03-24T10:59:03.497Z,1027.57
2017-03-24T11:00:13.425Z,1027.58
2017-03-24T11:01:23.362Z,1027.59
2017-03-24T11:02:33.289Z,1027.54
2017-03-24T11:03:43.230Z,1027.55
2017-03-24T11:04:53.163Z,1027.53
2017-03-24T11:06:03.405Z,1027.53
2017-03-24T11:07:13.335Z,1027.53
2017-03-24T11:08:23.309Z,1027.57
2017-03-24T11:09:33.250Z,1027.58
2017-03-24T11:10:43.176Z,1027.61
2017-03-24T11:11:52.791Z,1027.64
2017-03-24T11:13:02.712Z,1027.67
2017-03-24T11:14:12.951Z,1027.72
2017-03-24T11:15:22.565Z,1027.76
2017-03-24T11:16:32.508Z,1027.77
2017-03-24T11:17:42.446Z,1027.82
2017-03-24T11:18:52.687Z,1027.82
2017-03-24T11:20:02.311Z,1027.79
2017-03-24T11:21:12.566Z,1027.81
2017-03-24T11:22:22.495Z,1027.88
2017-03-24T11:23:32.107Z,1027.82
2017-03-24T11:24:42.037Z,1027.82
2017-03-24T11:25:52.280Z,1027.82
2017-03-24T11:27:01.895Z,1027.81
2017-03-24T11:28:11.550Z,1027.8
2017-03-24T11:29:21.789Z,1027.77
2017-03-24T11:30:31.401Z,1027.77
2017-03-24T11:31:40.707Z,1027.78
2017-03-24T11:32:50.640Z,1027.69
2017-03-24T11:34:00.888Z,1027.74
2017-03-24T11:35:10.827Z,1027.72
2017-03-24T11:36:20.446Z,1027.74
2017-03-24T11:37:30.379Z,1027.76
2017-03-24T11:38:40.619Z,1027.76
2017-03-24T11:39:50.576Z,1027.79
2017-03-24T11:41:00.509Z,1027.81
2017-03-24T11:42:10.441Z,1027.81
2017-03-24T11:43:20.682Z,1027.82
2017-03-24T11:44:30.610Z,1027.85
2017-03-24T11:45:40.868Z,1027.8
2017-03-24T11:46:50.800Z,1027.77
2017-03-24T11:48:00.769Z,1027.78
2017-03-24T11:49:11.015Z,1027.76
2017-03-24T11:50:20.940Z,1027.72
2017-03-24T11:51:30.566Z,1027.75
2017-03-24T11:52:40.506Z,1027.77
2017-03-24T11:53:50.435Z,1027.71
2017-03-24T11:55:00.055Z,1027.73
2017-03-24T11:56:09.983Z,1027.72
2017-03-24T11:57:20.218Z,1027.74
2017-03-24T11:58:30.155Z,1027.71
2017-03-24T11:59:39.772Z,1027.71
2017-03-24T12:00:50.016Z,1027.7
2017-03-24T12:01:59.940Z,1027.7
2017-03-24T12:03:09.877Z,1027.69
2017-03-24T12:04:19.496Z,1027.67
2017-03-24T12:05:29.429Z,1027.65
2017-03-24T12:06:39.039Z,1027.64
2017-03-24T12:07:48.964Z,1027.64
2017-03-24T12:08:58.888Z,1027.62
2017-03-24T12:10:08.506Z,1027.59
2017-03-24T12:11:18.744Z,1027.62
2017-03-24T12:12:28.354Z,1027.6
2017-03-24T12:13:38.600Z,1027.6
2017-03-24T12:14:48.841Z,1027.59
2017-03-24T12:15:58.781Z,1027.59
2017-03-24T12:17:09.018Z,1027.56
2017-03-24T12:18:18.632Z,1027.56
2017-03-24T12:19:28.557Z,1027.55
2017-03-24T12:20:38.173Z,1027.56
2017-03-24T12:21:48.098Z,1027.55
2017-03-24T12:22:58.387Z,1027.54
2017-03-24T12:24:08.629Z,1027.53
2017-03-24T12:25:18.238Z,1027.52
2017-03-24T12:26:27.863Z,1027.5
2017-03-24T12:27:38.104Z,1027.5
2017-03-24T12:28:48.033Z,1027.49
2017-03-24T12:29:57.959Z,1027.49
2017-03-24T12:31:06.949Z,1027.48
2017-03-24T12:32:16.879Z,1027.47
2017-03-24T12:33:27.129Z,1027.46
2017-03-24T12:34:37.064Z,1027.47
2017-03-24T12:35:46.998Z,1027.42
2017-03-24T12:36:57.255Z,1027.41
2017-03-24T12:38:07.498Z,1027.44
2017-03-24T12:39:17.422Z,1027.41
2017-03-24T12:40:27.664Z,1027.41
2017-03-24T12:41:37.914Z,1027.39
2017-03-24T12:42:48.160Z,1027.42
2017-03-24T12:43:57.773Z,1027.41
2017-03-24T12:45:07.698Z,1027.39
2017-03-24T12:46:17.633Z,1027.39
2017-03-24T12:47:27.558Z,1027.36
2017-03-24T12:48:37.796Z,1027.34
2017-03-24T12:49:47.098Z,1027.29
2017-03-24T12:50:57.020Z,1027.32
2017-03-24T12:52:07.310Z,1027.35
2017-03-24T12:53:16.624Z,1027.34
2017-03-24T12:54:26.866Z,1027.34
2017-03-24T12:55:36.175Z,1027.33
2017-03-24T12:56:45.800Z,1027.36
2017-03-24T12:57:56.052Z,1027.31
2017-03-24T12:59:05.983Z,1027.36
2017-03-24T13:00:15.919Z,1027.33
2017-03-24T13:01:25.878Z,1027.34
2017-03-24T13:02:35.811Z,1027.34
2017-03-24T13:03:45.741Z,1027.36
2017-03-24T13:04:55.672Z,1027.32
2017-03-24T13:06:05.300Z,1027.41
2017-03-24T13:07:14.931Z,1027.35
2017-03-24T13:08:24.855Z,1027.42
2017-03-24T13:09:35.098Z,1027.39
2017-03-24T13:10:45.026Z,1027.4
2017-03-24T13:11:54.956Z,1027.44
2017-03-24T13:13:04.890Z,1027.4
2017-03-24T13:14:14.515Z,1027.38
2017-03-24T13:15:24.135Z,1027.43
2017-03-24T13:16:34.066Z,1027.4
2017-03-24T13:17:44.322Z,1027.4
2017-03-24T13:18:54.308Z,1027.37
2017-03-24T13:20:04.559Z,1027.33
2017-03-24T13:21:14.496Z,1027.34
2017-03-24T13:22:24.741Z,1027.32
2017-03-24T13:23:34.360Z,1027.33
2017-03-24T13:24:44.288Z,1027.32
2017-03-24T13:25:54.536Z,1027.3
2017-03-24T13:27:04.169Z,1027.31
2017-03-24T13:28:14.108Z,1027.26
2017-03-24T13:29:23.726Z,1027.32
2017-03-24T13:30:33.660Z,1027.3
2017-03-24T13:31:43.605Z,1027.31
2017-03-24T13:32:53.547Z,1027.33
2017-03-24T13:34:03.163Z,1027.31
2017-03-24T13:35:12.821Z,1027.31
2017-03-24T13:36:23.067Z,1027.33
2017-03-24T13:37:32.687Z,1027.35
2017-03-24T13:38:42.923Z,1027.38
2017-03-24T13:39:52.849Z,1027.36
2017-03-24T13:41:02.478Z,1027.33
2017-03-24T13:42:12.415Z,1027.33
2017-03-24T13:43:22.351Z,1027.29
2017-03-24T13:44:32.279Z,1027.26
2017-03-24T13:45:41.901Z,1027.27
2017-03-24T13:46:51.831Z,1027.26
2017-03-24T13:48:02.082Z,1027.3
2017-03-24T13:49:12.011Z,1027.3
2017-03-24T13:50:21.943Z,1027.31
2017-03-24T13:51:31.878Z,1027.31
2017-03-24T13:52:42.122Z,1027.29
2017-03-24T13:53:52.364Z,1027.29
2017-03-24T13:55:02.612Z,1027.29
2017-03-24T13:56:12.231Z,1027.25
2017-03-24T13:57:21.552Z,1027.27
2017-03-24T13:58:31.798Z,1027.24
2017-03-24T13:59:42.037Z,1027.24
2017-03-24T14:00:51.965Z,1027.2
2017-03-24T14:02:01.906Z,1027.27
2017-03-24T14:03:12.142Z,1027.22
2017-03-24T14:04:22.069Z,1027.25
2017-03-24T14:05:31.683Z,1027.19
2017-03-24T14:06:41.620Z,1027.23
2017-03-24T14:07:51.861Z,1027.28
2017-03-24T14:09:02.107Z,1027.27
2017-03-24T14:10:12.361Z,1027.27
2017-03-24T14:11:22.611Z,1027.28
2017-03-24T14:12:32.854Z,1027.25
2017-03-24T14:13:43.100Z,1027.25
2017-03-24T14:14:52.406Z,1027.26
2017-03-24T14:16:02.343Z,1027.25
2017-03-24T14:17:12.276Z,1027.24